Time;durP1;ratioP1;P1;durP2;ratioP2;P2;SDS_P1;SDS_P2;PMS_P1;PMS_P2;Temp;Humidity;BMP_temperature;BMP_pressure;BME280_temperature;BME280_humidity;BME280_pressure;Samples;Min_cycle;Max_cycle;Signal;HPM_P1;HPM_P2
2021/10/24 00:01:11;;;;;;;14.25;10.88;;;;;;;7.52;100.00;102621.78;5056755;29;20881;-70
2021/10/24 00:03:43;;;;;;;15.77;10.10;;;;;;;7.46;100.00;102619.41;5061222;29;20575;-70
2021/10/24 00:06:14;;;;;;;13.40;11.65;;;;;;;7.44;100.00;102622.09;5060390;29;20047;-70
2021/10/24 00:08:45;;;;;;;15.73;11.15;;;;;;;7.38;100.00;102624.13;5060309;29;20077;-71
2021/10/24 00:11:17;;;;;;;12.30;11.00;;;;;;;7.41;100.00;102624.84;5059308;29;20065;-70
2021/10/24 00:13:48;;;;;;;14.07;11.20;;;;;;;7.36;100.00;102616.38;5060824;29;20033;-68
2021/10/24 00:16:19;;;;;;;15.85;10.88;;;;;;;7.37;100.00;102618.06;5058341;29;20029;-69
2021/10/24 00:18:51;;;;;;;14.80;11.13;;;;;;;7.32;100.00;102620.88;5059900;29;20975;-69
2021/10/24 00:21:22;;;;;;;15.75;11.93;;;;;;;7.31;100.00;102615.69;5059346;29;20026;-70
2021/10/24 00:23:53;;;;;;;18.65;11.95;;;;;;;7.29;100.00;102612.34;5058886;29;20029;-70
2021/10/24 00:26:24;;;;;;;17.45;12.23;;;;;;;7.36;100.00;102616.38;5058031;29;20040;-69
2021/10/24 00:28:56;;;;;;;17.40;12.00;;;;;;;7.31;100.00;102610.50;5058538;29;20061;-69
2021/10/24 00:31:27;;;;;;;16.55;12.02;;;;;;;7.35;100.00;102611.22;5060011;29;20033;-70
2021/10/24 00:33:59;;;;;;;15.10;11.18;;;;;;;7.33;100.00;102613.91;5059320;29;20125;-68
2021/10/24 00:36:30;;;;;;;15.07;11.25;;;;;;;7.31;100.00;102613.97;5057405;29;20412;-69
2021/10/24 00:39:03;;;;;;;15.18;10.98;;;;;;;7.29;100.00;102614.94;5056983;29;20484;-68
2021/10/24 00:41:34;;;;;;;14.45;11.45;;;;;;;7.28;100.00;102608.88;5059048;29;20039;-71
2021/10/24 00:44:20;;;;;;;16.58;11.68;;;;;;;7.45;100.00;102605.53;5057921;29;20029;-69
2021/10/24 00:46:54;;;;;;;13.93;11.05;;;;;;;7.27;100.00;102616.75;5057216;29;20062;-70
2021/10/24 00:49:26;;;;;;;16.67;11.85;;;;;;;7.26;100.00;102622.88;5058664;29;20044;-70
2021/10/24 00:51:57;;;;;;;16.10;11.73;;;;;;;7.22;100.00;102608.28;5058008;29;20025;-70
2021/10/24 00:54:29;;;;;;;16.20;12.52;;;;;;;7.18;100.00;102598.91;5056328;29;20071;-68
2021/10/24 00:57:02;;;;;;;14.30;11.35;;;;;;;7.19;100.00;102605.81;5056729;29;20124;-70
2021/10/24 00:59:33;;;;;;;14.55;11.80;;;;;;;7.15;100.00;102601.63;5056313;29;20033;-70
2021/10/24 01:02:05;;;;;;;17.35;12.13;;;;;;;7.16;100.00;102603.31;5059139;29;20090;-70
2021/10/24 01:04:37;;;;;;;14.10;12.20;;;;;;;7.12;100.00;102597.38;5059083;29;20033;-70
2021/10/24 01:07:09;;;;;;;17.65;12.40;;;;;;;7.11;100.00;102600.06;5053440;29;20044;-70
2021/10/24 01:09:41;;;;;;;16.87;12.10;;;;;;;7.14;100.00;102599.94;5056759;29;20033;-71
2021/10/24 01:12:15;;;;;;;17.60;11.70;;;;;;;7.06;100.00;102606.34;5054511;29;20044;-70
2021/10/24 01:14:46;;;;;;;17.48;11.23;;;;;;;6.97;100.00;102601.50;5055440;29;20033;-71
2021/10/24 01:17:18;;;;;;;14.15;10.95;;;;;;;6.97;100.00;102598.03;5054684;29;20122;-69
2021/10/24 01:19:49;;;;;;;16.63;11.60;;;;;;;6.88;100.00;102590.63;5054956;29;20144;-70
2021/10/24 01:22:22;;;;;;;15.88;11.75;;;;;;;6.88;100.00;102591.47;5054705;29;20040;-70
2021/10/24 01:24:53;;;;;;;16.10;11.40;;;;;;;6.92;100.00;102587.81;5057334;29;20124;-70
2021/10/24 01:27:24;;;;;;;16.30;11.60;;;;;;;6.91;100.00;102585.28;5056687;29;20112;-70
2021/10/24 01:29:58;;;;;;;13.27;11.18;;;;;;;6.96;100.00;102588.53;5055337;29;20769;-70
2021/10/24 01:32:29;;;;;;;18.60;12.07;;;;;;;6.90;100.00;102581.84;5058087;29;20026;-68
2021/10/24 01:35:00;;;;;;;13.30;10.65;;;;;;;6.89;100.00;102582.72;5056213;29;20055;-70
2021/10/24 01:37:34;;;;;;;16.80;10.80;;;;;;;6.90;100.00;102579.22;5054494;29;20049;-70
2021/10/24 01:40:10;;;;;;;13.65;11.00;;;;;;;6.90;100.00;102578.38;5056789;29;20101;-70
2021/10/24 01:42:55;;;;;;;16.65;11.80;;;;;;;6.96;100.00;102580.72;5054728;29;21161;-69
2021/10/24 01:45:28;;;;;;;16.35;11.98;;;;;;;6.83;100.00;102569.97;5055220;29;20062;-70
2021/10/24 01:47:59;;;;;;;16.08;11.82;;;;;;;6.85;100.00;102568.13;5056737;29;20029;-70
2021/10/24 01:50:31;;;;;;;16.98;11.68;;;;;;;6.79;100.00;102563.19;5048614;29;20395;-69
2021/10/24 01:53:03;;;;;;;12.80;10.18;;;;;;;6.79;100.00;102565.78;5051701;29;20030;-71
2021/10/24 01:55:34;;;;;;;15.68;11.65;;;;;;;6.76;100.00;102552.91;5051042;29;20037;-70
2021/10/24 01:58:06;;;;;;;13.32;12.00;;;;;;;6.76;100.00;102551.13;5048534;29;20116;-69
2021/10/24 02:00:37;;;;;;;16.23;11.55;;;;;;;6.75;100.00;102549.44;5048101;29;20037;-69
2021/10/24 02:03:10;;;;;;;12.35;10.55;;;;;;;6.75;100.00;102544.22;5045581;29;20047;-69
2021/10/24 02:05:41;;;;;;;14.93;12.15;;;;;;;6.71;100.00;102554.84;5054079;29;20069;-69
2021/10/24 02:08:14;;;;;;;19.05;12.13;;;;;;;6.70;100.00;102547.91;5053866;29;20069;-69
2021/10/24 02:10:45;;;;;;;15.20;11.48;;;;;;;6.69;100.00;102547.09;5052478;29;20025;-70
2021/10/24 02:13:17;;;;;;;15.75;11.48;;;;;;;6.66;100.00;102548.97;5052950;29;20116;-69
2021/10/24 02:15:48;;;;;;;17.08;11.77;;;;;;;6.64;100.00;102548.19;5053319;29;20077;-69
2021/10/24 02:18:20;;;;;;;13.80;11.90;;;;;;;6.60;100.00;102542.25;5052712;29;20522;-70
2021/10/24 02:20:51;;;;;;;18.42;11.73;;;;;;;6.63;100.00;102538.66;5052346;29;20029;-70
2021/10/24 02:23:22;;;;;;;14.23;10.68;;;;;;;6.53;100.00;102522.59;5053905;29;20609;-69
2021/10/24 02:25:54;;;;;;;14.18;11.18;;;;;;;6.55;100.00;102521.63;5055668;29;20114;-69
2021/10/24 02:28:25;;;;;;;13.93;11.75;;;;;;;6.58;100.00;102524.06;5051303;29;20029;-70
2021/10/24 02:30:56;;;;;;;13.13;11.63;;;;;;;6.55;100.00;102526.84;5053689;29;20037;-69
2021/10/24 02:33:28;;;;;;;14.65;10.43;;;;;;;6.55;100.00;102524.22;5054623;29;20037;-69
2021/10/24 02:35:59;;;;;;;13.43;10.93;;;;;;;6.52;100.00;102520.91;5053887;29;20037;-69
2021/10/24 02:38:30;;;;;;;16.30;10.32;;;;;;;6.49;100.00;102514.06;5048503;29;20084;-69
2021/10/24 02:41:01;;;;;;;16.92;11.27;;;;;;;6.50;100.00;102514.91;5053294;29;20444;-69
2021/10/24 02:43:33;;;;;;;16.50;11.85;;;;;;;6.49;100.00;102513.22;5053829;29;20497;-70
2021/10/24 02:46:04;;;;;;;14.93;11.15;;;;;;;6.50;100.00;102507.09;5054848;29;20040;-69
2021/10/24 02:48:35;;;;;;;17.35;11.57;;;;;;;6.44;100.00;102509.94;5052818;29;20040;-69
2021/10/24 02:51:07;;;;;;;13.15;10.88;;;;;;;6.45;100.00;102503.84;5051587;29;20422;-70
2021/10/24 02:53:38;;;;;;;15.88;10.40;;;;;;;6.46;100.00;102510.72;5053465;29;20030;-70
2021/10/24 02:56:09;;;;;;;15.75;11.35;;;;;;;6.44;100.00;102505.59;5053225;29;20037;-69
2021/10/24 02:58:41;;;;;;;17.25;11.02;;;;;;;6.46;100.00;102503.75;5053263;29;20033;-69
2021/10/24 03:01:12;;;;;;;19.85;11.60;;;;;;;6.42;100.00;102499.59;5052000;29;20081;-69
2021/10/24 03:03:43;;;;;;;17.02;12.00;;;;;;;6.39;100.00;102504.91;5052388;29;20037;-69
2021/10/24 03:06:15;;;;;;;12.55;11.25;;;;;;;6.39;100.00;102502.31;5054806;29;20037;-70
2021/10/24 03:08:46;;;;;;;20.60;11.88;;;;;;;6.38;100.00;102502.38;5054170;29;20040;-69
2021/10/24 03:11:17;;;;;;;13.40;11.30;;;;;;;6.32;100.00;102493.91;5049956;29;20049;-69
2021/10/24 03:13:49;;;;;;;15.85;10.50;;;;;;;6.33;100.00;102499.97;5049701;29;20531;-70
2021/10/24 03:16:21;;;;;;;13.55;10.55;;;;;;;6.30;100.00;102489.69;5052129;29;21518;-69
2021/10/24 03:18:53;;;;;;;14.55;11.32;;;;;;;6.35;100.00;102487.72;5052084;29;20061;-69
2021/10/24 03:21:24;;;;;;;13.95;11.07;;;;;;;6.28;100.00;102487.13;5050915;29;20043;-69
2021/10/24 03:23:57;;;;;;;12.48;10.57;;;;;;;6.26;100.00;102481.16;5051939;29;20152;-70
2021/10/24 03:26:28;;;;;;;15.07;10.82;;;;;;;6.22;100.00;102491.75;5053970;29;20025;-69
2021/10/24 03:28:59;;;;;;;15.57;10.57;;;;;;;6.22;100.00;102479.59;5054567;29;20037;-69
2021/10/24 03:31:31;;;;;;;13.52;11.63;;;;;;;6.23;100.00;102478.66;5050138;29;20033;-69
2021/10/24 03:34:03;;;;;;;14.73;11.27;;;;;;;6.21;100.00;102483.09;5052713;29;20476;-69
2021/10/24 03:36:34;;;;;;;14.32;11.45;;;;;;;6.22;100.00;102478.75;5053176;29;20536;-69
2021/10/24 03:39:05;;;;;;;13.45;10.88;;;;;;;6.22;100.00;102481.34;5050080;29;20049;-69
2021/10/24 03:41:37;;;;;;;14.57;10.55;;;;;;;6.16;100.00;102478.97;5052089;29;20045;-69
2021/10/24 03:44:08;;;;;;;15.85;10.35;;;;;;;6.14;100.00;102479.06;5052373;29;20457;-69
2021/10/24 03:46:39;;;;;;;20.00;11.82;;;;;;;6.17;100.00;102478.06;5053024;29;20036;-69
2021/10/24 03:49:11;;;;;;;14.23;10.95;;;;;;;6.15;100.00;102485.09;5049397;29;20037;-70
2021/10/24 03:51:42;;;;;;;13.65;10.68;;;;;;;6.14;100.00;102480.78;5051984;29;20033;-69
2021/10/24 03:54:13;;;;;;;12.25;10.65;;;;;;;6.12;100.00;102475.66;5052061;29;20491;-69
2021/10/24 03:56:45;;;;;;;14.27;11.00;;;;;;;6.03;100.00;102483.84;5053216;29;20045;-70
2021/10/24 03:59:16;;;;;;;13.45;10.85;;;;;;;6.06;100.00;102486.28;5049974;29;20047;-69
2021/10/24 04:01:47;;;;;;;13.20;10.52;;;;;;;6.03;100.00;102473.41;5049397;29;20522;-69
2021/10/24 04:04:19;;;;;;;13.35;10.18;;;;;;;6.02;100.00;102488.19;5051851;29;20033;-69
2021/10/24 04:06:50;;;;;;;15.23;11.50;;;;;;;5.97;100.00;102490.09;5051690;29;20400;-69
2021/10/24 04:09:21;;;;;;;12.68;10.95;;;;;;;5.98;100.00;102483.97;5052884;29;20033;-70
2021/10/24 04:11:52;;;;;;;15.02;11.45;;;;;;;5.98;100.00;102483.97;5048785;29;20530;-70
2021/10/24 04:14:27;;;;;;;14.07;11.07;;;;;;;5.98;100.00;102483.97;5052530;29;20095;-69
2021/10/24 04:16:58;;;;;;;12.88;10.40;;;;;;;5.91;100.00;102485.13;5052493;29;20432;-71
2021/10/24 04:19:29;;;;;;;16.77;11.38;;;;;;;5.93;100.00;102475.53;5051783;29;20100;-69
2021/10/24 04:22:00;;;;;;;13.23;10.70;;;;;;;5.85;100.00;102473.19;5049493;29;20037;-69
2021/10/24 04:24:32;;;;;;;14.20;10.73;;;;;;;5.90;100.00;102478.22;5051847;29;20484;-69
2021/10/24 04:27:03;;;;;;;15.30;11.50;;;;;;;5.90;100.00;102477.38;5052463;29;20034;-69
2021/10/24 04:29:34;;;;;;;14.73;11.02;;;;;;;5.86;100.00;102469.69;5050739;29;20104;-69
2021/10/24 04:32:06;;;;;;;14.80;10.65;;;;;;;5.85;100.00;102473.19;5050395;29;20468;-69
2021/10/24 04:34:37;;;;;;;13.48;10.93;;;;;;;5.85;100.00;102464.53;5052769;29;20444;-69
2021/10/24 04:37:08;;;;;;;16.52;11.45;;;;;;;5.81;100.00;102455.16;5051666;29;20117;-70
2021/10/24 04:39:40;;;;;;;12.63;10.55;;;;;;;5.90;100.00;102470.41;5047566;29;20041;-69
2021/10/24 04:42:11;;;;;;;14.55;10.10;;;;;;;5.84;100.00;102458.50;5047611;29;20041;-69
2021/10/24 04:44:43;;;;;;;15.35;11.70;;;;;;;5.87;100.00;102460.13;5051392;29;20036;-69
2021/10/24 04:47:14;;;;;;;12.90;10.40;;;;;;;5.79;100.00;102463.00;5050647;29;20462;-69
2021/10/24 04:49:46;;;;;;;14.90;11.05;;;;;;;5.74;100.00;102458.91;5049955;29;20049;-69
2021/10/24 04:52:17;;;;;;;15.80;11.35;;;;;;;5.69;100.00;102458.25;5052230;29;20041;-69
2021/10/24 04:54:48;;;;;;;13.35;10.00;;;;;;;5.65;100.00;102464.47;5052999;29;20079;-69
2021/10/24 04:57:21;;;;;;;14.07;11.05;;;;;;;5.60;100.00;102457.66;5051337;29;20045;-70
2021/10/24 04:59:52;;;;;;;13.00;10.88;;;;;;;5.59;100.00;102461.19;5051720;29;20479;-69
2021/10/24 05:02:23;;;;;;;15.18;10.43;;;;;;;5.57;100.00;102455.22;5051537;29;20056;-69
2021/10/24 05:04:55;;;;;;;15.63;10.63;;;;;;;5.50;100.00;102448.56;5049551;29;20174;-70
2021/10/24 05:07:26;;;;;;;13.45;10.38;;;;;;;5.46;100.00;102451.31;5051948;29;20026;-70
2021/10/24 05:09:57;;;;;;;12.93;10.68;;;;;;;5.40;100.00;102448.94;5048637;29;20401;-69
2021/10/24 05:12:29;;;;;;;12.55;10.15;;;;;;;5.24;100.00;102449.50;5048962;29;20041;-69
2021/10/24 05:15:00;;;;;;;14.05;10.48;;;;;;;5.22;100.00;102440.91;5051061;29;20033;-70
2021/10/24 05:17:31;;;;;;;13.18;9.90;;;;;;;5.16;100.00;102450.72;5051645;29;20080;-69
2021/10/24 05:20:04;;;;;;;14.27;10.40;;;;;;;5.19;100.00;102442.78;5051230;29;20041;-69
2021/10/24 05:22:36;;;;;;;12.20;10.23;;;;;;;5.10;100.00;102431.81;5049280;29;20049;-69
2021/10/24 05:25:07;;;;;;;15.07;10.20;;;;;;;5.06;100.00;102429.41;5048953;29;20392;-69
2021/10/24 05:27:38;;;;;;;13.32;10.43;;;;;;;5.00;100.00;102420.09;5051868;29;20452;-70
2021/10/24 05:30:10;;;;;;;13.23;10.82;;;;;;;5.01;100.00;102426.13;5051593;29;20124;-69
2021/10/24 05:32:41;;;;;;;13.05;10.50;;;;;;;4.95;100.00;102429.78;5049363;29;20030;-70
2021/10/24 05:35:12;;;;;;;11.63;9.57;;;;;;;4.92;100.00;102422.09;5051184;29;20063;-69
2021/10/24 05:37:44;;;;;;;16.60;10.63;;;;;;;5.01;100.00;102423.53;5050512;29;20056;-68
2021/10/24 05:40:16;;;;;;;11.55;10.35;;;;;;;4.89;100.00;102422.22;5048762;29;20033;-69
2021/10/24 05:42:47;;;;;;;14.75;10.18;;;;;;;4.83;100.00;102419.84;5051618;29;20073;-69
2021/10/24 05:45:19;;;;;;;12.77;10.32;;;;;;;4.80;100.00;102420.78;5050892;29;20132;-69
2021/10/24 05:47:50;;;;;;;12.73;10.52;;;;;;;4.78;100.00;102419.16;5051473;29;20041;-69
2021/10/24 05:50:24;;;;;;;11.65;10.07;;;;;;;4.81;100.00;102413.84;5050290;29;20498;-69
2021/10/24 05:52:56;;;;;;;12.00;9.50;;;;;;;4.77;100.00;102407.06;5049065;29;20085;-68
2021/10/24 05:55:27;;;;;;;13.80;9.88;;;;;;;4.78;100.00;102414.81;5050003;29;20436;-68
2021/10/24 05:57:59;;;;;;;11.80;9.90;;;;;;;4.74;100.00;102412.38;5048595;29;20618;-69
2021/10/24 06:00:32;;;;;;;14.20;10.25;;;;;;;4.68;100.00;102399.59;5051878;29;20496;-70
2021/10/24 06:03:04;;;;;;;14.52;10.10;;;;;;;4.74;100.00;102397.66;5050565;29;20106;-69
2021/10/24 06:05:36;;;;;;;11.88;10.45;;;;;;;4.68;100.00;102402.19;5050812;29;20396;-70
2021/10/24 06:08:10;;;;;;;11.60;10.10;;;;;;;4.69;100.00;102404.72;5051257;29;20044;-69
2021/10/24 06:10:41;;;;;;;12.43;10.10;;;;;;;4.70;100.00;102405.56;5050510;29;20036;-69
2021/10/24 06:13:13;;;;;;;13.30;10.82;;;;;;;4.69;100.00;102409.06;5045555;29;20030;-69
2021/10/24 06:15:44;;;;;;;14.20;11.32;;;;;;;4.68;100.00;102397.84;5050788;29;20040;-69
2021/10/24 06:18:16;;;;;;;14.02;10.48;;;;;;;4.70;100.00;102402.97;5049843;29;20117;-69
2021/10/24 06:20:47;;;;;;;14.63;11.07;;;;;;;4.57;100.00;102400.81;5049074;29;20090;-70
2021/10/24 06:23:18;;;;;;;12.73;10.52;;;;;;;4.62;100.00;102393.75;5046205;29;20094;-69
2021/10/24 06:25:50;;;;;;;14.20;10.88;;;;;;;4.57;100.00;102400.81;5051257;29;20129;-69
2021/10/24 06:28:21;;;;;;;14.93;10.80;;;;;;;4.61;100.00;102401.56;5050373;29;20033;-69
2021/10/24 06:30:53;;;;;;;13.25;10.65;;;;;;;4.52;100.00;102396.69;5049621;29;20092;-69
2021/10/24 06:33:24;;;;;;;14.98;11.10;;;;;;;4.46;100.00;102392.56;5048060;29;20514;-70
2021/10/24 06:35:56;;;;;;;15.23;10.63;;;;;;;4.47;100.00;102391.69;5048449;29;20041;-70
2021/10/24 06:38:27;;;;;;;14.57;10.75;;;;;;;4.59;100.00;102403.38;5045551;29;20109;-69
2021/10/24 06:40:58;;;;;;;15.35;10.50;;;;;;;4.59;100.00;102401.63;5046999;29;20041;-69
2021/10/24 06:43:29;;;;;;;12.48;9.77;;;;;;;4.57;100.00;102395.63;5046158;29;20065;-69
2021/10/24 06:46:01;;;;;;;14.60;10.65;;;;;;;4.53;100.00;102373.28;5046710;29;20563;-70
2021/10/24 06:48:32;;;;;;;12.27;10.38;;;;;;;4.64;100.00;102391.06;5050727;29;20025;-69
2021/10/24 06:51:04;;;;;;;14.15;10.88;;;;;;;4.64;100.00;102391.91;5043399;29;20124;-69
2021/10/24 06:53:35;;;;;;;12.57;10.13;;;;;;;4.62;100.00;102383.34;5051532;29;20025;-70
2021/10/24 06:56:06;;;;;;;11.95;10.18;;;;;;;4.56;100.00;102378.38;5049663;29;20057;-69
2021/10/24 06:58:37;;;;;;;12.30;10.05;;;;;;;4.61;100.00;102383.38;5037129;29;20292;-69
2021/10/24 07:01:09;;;;;;;11.57;10.15;;;;;;;4.66;100.00;102383.22;5044391;29;20132;-69
2021/10/24 07:03:40;;;;;;;12.65;10.07;;;;;;;4.72;100.00;102380.41;5053041;29;20093;-69
2021/10/24 07:06:11;;;;;;;13.00;9.75;;;;;;;4.68;100.00;102381.44;5051037;29;20045;-69
2021/10/24 07:08:43;;;;;;;14.20;10.00;;;;;;;4.76;100.00;102382.84;5051141;29;20447;-69
2021/10/24 07:11:14;;;;;;;13.82;10.25;;;;;;;4.78;100.00;102378.47;5050427;29;20332;-69
2021/10/24 07:13:45;;;;;;;20.23;11.77;;;;;;;4.84;100.00;102374.78;5048554;29;20029;-69
2021/10/24 07:16:17;;;;;;;15.63;10.95;;;;;;;4.95;100.00;102375.25;5051148;29;20029;-69
2021/10/24 07:18:48;;;;;;;14.50;11.18;;;;;;;4.96;100.00;102374.31;5052558;29;20021;-69
2021/10/24 07:21:20;;;;;;;16.27;11.23;;;;;;;5.01;100.00;102367.22;5050457;29;20040;-69
2021/10/24 07:23:51;;;;;;;16.58;11.38;;;;;;;5.09;100.00;102361.75;5047879;29;20129;-69
2021/10/24 07:26:23;;;;;;;13.93;11.95;;;;;;;5.16;100.00;102358.03;5065712;29;20022;-69
2021/10/24 07:28:54;;;;;;;16.80;12.15;;;;;;;5.24;100.00;102361.16;5051317;29;20044;-70
2021/10/24 07:31:26;;;;;;;15.52;11.60;;;;;;;5.30;100.00;102355.75;5049614;29;20107;-69
2021/10/24 07:33:57;;;;;;;17.75;11.63;;;;;;;5.46;100.00;102353.41;5045229;29;20030;-69
2021/10/24 07:36:29;;;;;;;17.33;12.45;;;;;;;5.51;100.00;102351.44;5050950;29;20049;-69
2021/10/24 07:39:00;;;;;;;16.45;12.52;;;;;;;5.52;100.00;102345.34;5045325;29;20761;-70
2021/10/24 07:41:31;;;;;;;21.20;13.07;;;;;;;5.65;100.00;102345.72;5048276;29;20037;-69
2021/10/24 07:44:05;;;;;;;15.13;11.23;;;;;;;5.73;100.00;102337.59;5049430;29;20025;-69
2021/10/24 07:46:37;;;;;;;18.30;11.32;;;;;;;5.82;100.00;102339.81;5050933;29;20052;-69
2021/10/24 07:49:09;;;;;;;16.95;12.00;;;;;;;5.89;100.00;102336.06;5051931;29;20145;-70
2021/10/24 07:51:41;;;;;;;15.55;11.05;;;;;;;5.94;100.00;102346.31;5055281;29;20061;-70
2021/10/24 07:54:13;;;;;;;14.55;11.05;;;;;;;5.98;100.00;102338.31;5059343;29;20025;-70
2021/10/24 07:56:44;;;;;;;14.70;10.57;;;;;;;6.11;100.00;102346.47;5058993;29;20037;-70
2021/10/24 07:59:15;;;;;;;14.13;10.52;;;;;;;6.17;100.00;102340.97;5058009;29;20037;-69
2021/10/24 08:01:47;;;;;;;13.80;10.00;;;;;;;6.25;100.00;102338.06;5055608;29;20029;-70
2021/10/24 08:04:19;;;;;;;12.90;10.18;;;;;;;6.30;100.00;102334.34;5050095;29;20038;-70
2021/10/24 08:06:50;;;;;;;15.02;9.85;;;;;;;6.34;100.00;102332.47;5056816;29;20118;-68
2021/10/24 08:09:21;;;;;;;14.68;10.75;;;;;;;6.44;100.00;102340.72;5068713;29;20059;-71
2021/10/24 08:11:53;;;;;;;18.02;11.13;;;;;;;6.45;100.00;102337.22;5046404;29;20125;-69
2021/10/24 08:14:25;;;;;;;12.07;9.75;;;;;;;6.57;100.00;102327.09;5050156;29;20097;-68
2021/10/24 08:16:56;;;;;;;12.10;9.70;;;;;;;6.63;100.00;102328.59;5058067;29;20038;-68
2021/10/24 08:19:28;;;;;;;11.35;9.60;;;;;;;6.72;100.00;102332.53;5057418;29;20025;-70
2021/10/24 08:21:59;;;;;;;12.20;9.32;;;;;;;6.67;100.00;102313.69;5057562;29;20108;-70
2021/10/24 08:24:31;;;;;;;13.88;8.43;;;;;;;6.82;100.00;102326.00;5057540;29;20045;-69
2021/10/24 08:27:02;;;;;;;14.15;9.13;;;;;;;6.88;100.00;102320.50;5051544;29;20042;-70
2021/10/24 08:29:34;;;;;;;13.15;8.60;;;;;;;6.92;100.00;102316.00;5054311;29;20021;-70
2021/10/24 08:32:09;;;;;;;12.68;9.75;;;;;;;7.02;100.00;102317.28;5056685;29;20041;-69
2021/10/24 08:34:41;;;;;;;12.27;9.23;;;;;;;7.10;100.00;102311.72;5052465;29;20044;-69
2021/10/24 08:37:13;;;;;;;12.73;8.98;;;;;;;7.09;100.00;102295.22;5051171;29;20049;-69
2021/10/24 08:39:48;;;;;;;12.85;9.55;;;;;;;7.25;100.00;102308.38;5051065;29;20121;-69
2021/10/24 08:42:28;;;;;;;11.82;8.80;;;;;;;7.28;100.00;102292.59;5053447;29;20117;-69
2021/10/24 08:45:01;;;;;;;12.75;8.77;;;;;;;7.32;100.00;102299.34;5052399;29;20041;-69
2021/10/24 08:47:32;;;;;;;11.18;8.30;;;;;;;7.42;100.00;102300.59;5049783;29;20072;-69
2021/10/24 08:50:04;;;;;;;12.30;9.05;;;;;;;7.50;100.00;102298.47;5051332;29;20084;-69
2021/10/24 08:52:39;;;;;;;13.73;9.05;;;;;;;7.50;100.00;102297.59;5050072;29;20036;-69
2021/10/24 08:55:10;;;;;;;12.57;7.68;;;;;;;7.58;100.00;102287.66;5052220;29;20033;-69
2021/10/24 08:57:42;;;;;;;10.93;8.13;;;;;;;7.60;100.00;102283.19;5050931;29;20039;-69
2021/10/24 09:00:13;;;;;;;12.55;7.80;;;;;;;7.76;100.00;102289.34;5051875;29;20089;-69
2021/10/24 09:03:03;;;;;;;13.25;8.80;;;;;;;7.95;100.00;102284.03;5045543;29;20044;-69
2021/10/24 09:05:41;;;;;;;10.00;7.28;;;;;;;7.95;100.00;102293.63;5049219;29;20065;-69
2021/10/24 09:08:14;;;;;;;14.05;8.25;;;;;;;7.92;100.00;102289.44;5048097;29;20025;-69
2021/10/24 09:10:54;;;;;;;12.25;7.10;;;;;;;8.14;100.00;102283.09;5049238;29;20399;-69
2021/10/24 09:13:28;;;;;;;10.38;7.82;;;;;;;8.12;100.00;102280.59;5050018;29;20111;-69
2021/10/24 09:16:07;;;;;;;9.77;6.75;;;;;;;8.17;100.00;102278.56;5049932;29;20551;-69
2021/10/24 09:18:43;;;;;;;12.40;7.35;;;;;;;8.25;100.00;102271.19;5049101;29;20045;-69
2021/10/24 09:21:14;;;;;;;9.05;6.75;;;;;;;8.34;100.00;102269.88;5048963;29;20036;-69
2021/10/24 09:23:47;;;;;;;8.50;6.27;;;;;;;8.45;100.00;102264.13;5052391;29;20045;-69
2021/10/24 09:26:30;;;;;;;11.87;7.23;;;;;;;8.68;100.00;102268.97;5050153;29;20306;-69
2021/10/24 09:29:11;;;;;;;13.77;6.88;;;;;;;8.71;100.00;102265.31;5052659;29;20033;-69
2021/10/24 09:31:49;;;;;;;11.93;6.88;;;;;;;8.77;100.00;102267.59;5050798;29;20500;-71
2021/10/24 09:34:25;;;;;;;11.45;7.20;;;;;;;8.94;100.00;102269.28;5049560;29;20112;-70
2021/10/24 09:37:02;;;;;;;9.95;6.05;;;;;;;9.04;100.00;102265.25;5050406;29;20049;-70
2021/10/24 09:39:37;;;;;;;10.30;6.57;;;;;;;9.11;100.00;102274.44;5050006;29;20037;-70
2021/10/24 09:42:14;;;;;;;10.43;6.45;;;;;;;9.24;100.00;102266.72;5049683;29;20033;-70
2021/10/24 09:45:06;;;;;;;6.97;5.50;;;;;;;9.52;100.00;102263.41;5049860;29;20113;-70
2021/10/24 09:47:44;;;;;;;9.30;6.45;;;;;;;9.46;100.00;102267.19;5051387;29;20182;-70
2021/10/24 09:50:39;;;;;;;10.98;5.70;;;;;;;9.68;100.00;102261.56;5050335;29;20046;-70
2021/10/24 09:53:24;;;;;;;8.93;5.25;;;;;;;9.75;100.00;102259.44;5051789;29;20057;-70
2021/10/24 09:55:55;;;;;;;10.05;5.43;;;;;;;9.87;100.00;102255.25;5047427;29;20064;-70
2021/10/24 09:58:42;;;;;;;8.10;5.47;;;;;;;10.09;100.00;102254.84;5051061;29;20029;-70
2021/10/24 10:01:16;;;;;;;8.05;5.10;;;;;;;10.11;100.00;102250.31;5052029;29;20286;-70
2021/10/24 10:03:49;;;;;;;8.95;5.32;;;;;;;10.18;100.00;102246.41;5051161;29;20543;-70
2021/10/24 10:06:23;;;;;;;10.95;5.20;;;;;;;10.33;100.00;102252.53;5049619;29;20084;-70
2021/10/24 10:08:57;;;;;;;8.90;5.30;;;;;;;10.46;100.00;102248.22;5051038;29;20496;-69
2021/10/24 10:11:38;;;;;;;8.18;4.80;;;;;;;10.64;100.00;102243.59;5051687;29;20439;-70
2021/10/24 10:14:16;;;;;;;8.07;4.93;;;;;;;10.73;100.00;102236.97;5050570;29;20042;-70
2021/10/24 10:17:05;;;;;;;7.60;4.80;;;;;;;10.95;100.00;102238.13;5050955;29;20032;-70
2021/10/24 10:19:41;;;;;;;7.22;4.45;;;;;;;10.89;100.00;102225.38;5050734;29;20033;-70
2021/10/24 10:22:22;;;;;;;10.43;5.28;;;;;;;11.12;100.00;102239.63;5047605;29;20676;-70
2021/10/24 10:24:59;;;;;;;9.00;5.10;;;;;;;11.11;100.00;102240.56;5052033;29;20046;-70
2021/10/24 10:27:38;;;;;;;7.85;4.25;;;;;;;11.19;100.00;102248.78;5055649;29;20063;-70
2021/10/24 10:30:17;;;;;;;7.22;4.80;;;;;;;11.32;100.00;102250.59;5054820;29;20048;-70
2021/10/24 10:32:51;;;;;;;7.05;4.18;;;;;;;11.38;100.00;102237.94;5052049;29;20204;-70
2021/10/24 10:35:24;;;;;;;6.85;4.60;;;;;;;11.38;100.00;102239.72;5051545;29;20116;-70
2021/10/24 10:37:58;;;;;;;7.20;4.15;;;;;;;11.54;100.00;102240.38;5053748;29;20053;-70
2021/10/24 10:40:34;;;;;;;8.70;4.38;;;;;;;11.53;100.00;102235.25;5050647;29;20116;-71
2021/10/24 10:43:11;;;;;;;7.35;4.70;;;;;;;11.67;100.00;102238.63;5052206;29;20036;-70
2021/10/24 10:45:49;;;;;;;11.05;5.03;;;;;;;11.80;100.00;102243.88;5053234;29;20037;-70
2021/10/24 10:48:42;;;;;;;6.18;4.25;;;;;;;11.97;100.00;102245.41;5052521;29;20060;-70
2021/10/24 10:51:19;;;;;;;;;;;;;;;12.33;100.00;102236.75;5049618;29;20037;-70
2021/10/24 10:53:56;;;;;;;8.60;4.38;;;;;;;12.10;100.00;102234.88;5052552;29;19945;-70
2021/10/24 10:56:53;;;;;;;5.97;4.45;;;;;;;12.22;100.00;102247.16;5054146;29;20112;-71
2021/10/24 10:59:37;;;;;;;8.00;4.65;;;;;;;12.18;100.00;102233.41;5052459;29;20024;-71
2021/10/24 11:02:23;;;;;;;7.80;4.18;;;;;;;12.33;100.00;102223.63;5053050;29;20037;-71
2021/10/24 11:04:57;;;;;;;7.72;4.00;;;;;;;12.18;100.00;102215.00;5051846;29;20033;-71
2021/10/24 11:07:39;;;;;;;8.05;4.45;;;;;;;12.36;100.00;102225.19;5053377;29;20061;-70
2021/10/24 11:10:17;;;;;;;7.40;4.32;;;;;;;12.41;100.00;102223.06;5050978;29;20042;-71
2021/10/24 11:12:49;;;;;;;9.65;4.45;;;;;;;12.39;100.00;102222.34;5052684;29;20105;-71
2021/10/24 11:15:27;;;;;;;12.45;4.35;;;;;;;12.61;100.00;102213.75;5051446;29;20116;-71
2021/10/24 11:17:59;;;;;;;5.25;4.22;;;;;;;12.63;100.00;102215.34;5046758;29;20621;-71
2021/10/24 11:20:42;;;;;;;9.23;4.90;;;;;;;12.79;100.00;102228.22;5047547;29;20037;-71
2021/10/24 11:23:16;;;;;;;8.95;5.43;;;;;;;12.73;100.00;102218.16;5051914;29;20348;-71
2021/10/24 11:25:49;;;;;;;8.18;4.65;;;;;;;12.76;100.00;102228.44;5053568;29;20125;-71
2021/10/24 11:28:23;;;;;;;;;;;;;;;13.23;100.00;102218.91;5052562;29;20033;-71
2021/10/24 11:31:17;;;;;;;;;;;;;;;13.37;100.00;102217.88;5051052;29;20367;-71
2021/10/24 11:33:49;;;;;;;7.72;4.75;;;;;;;13.13;100.00;102207.34;5053242;29;19917;-71
2021/10/24 11:36:29;;;;;;;7.80;4.13;;;;;;;13.26;100.00;102210.81;5053168;29;20065;-73
2021/10/24 11:39:04;;;;;;;6.63;3.97;;;;;;;13.15;100.00;102203.66;5053395;29;20135;-71